createdAt,value
2018-06-16T00:00:05.349Z,58.46
2018-06-16T00:02:36.004Z,58.99
2018-06-16T00:05:06.842Z,58.58
2018-06-16T00:07:37.509Z,58.20
2018-06-16T00:10:08.243Z,58.25
2018-06-16T00:12:38.890Z,58.88
2018-06-16T00:15:09.532Z,58.14
2018-06-16T00:17:40.191Z,57.45
2018-06-16T00:20:10.866Z,57.46
2018-06-16T00:22:41.479Z,57.92
2018-06-16T00:25:12.236Z,57.92
2018-06-16T00:27:42.847Z,57.36
2018-06-16T00:30:13.435Z,58.23
2018-06-16T00:32:44.089Z,58.94
2018-06-16T00:35:14.747Z,58.99
2018-06-16T00:37:45.380Z,58.75
2018-06-16T00:40:16.011Z,59.32
2018-06-16T00:42:46.657Z,59.12
2018-06-16T00:45:17.292Z,59.42
2018-06-16T00:47:47.903Z,59.22
2018-06-16T00:50:18.554Z,59.19
2018-06-16T00:52:49.239Z,59.12
2018-06-16T00:55:19.882Z,59.27
2018-06-16T00:57:51.327Z,59.67
2018-06-16T01:00:22.050Z,59.64
2018-06-16T01:02:52.900Z,60.14
2018-06-16T01:05:23.213Z,59.97
2018-06-16T01:07:53.730Z,59.13
2018-06-16T01:10:24.381Z,59.50
2018-06-16T01:12:55.009Z,59.76
2018-06-16T01:15:25.666Z,59.87
2018-06-16T01:17:56.311Z,60.23
2018-06-16T01:20:26.939Z,60.51
2018-06-16T01:22:57.590Z,60.73
2018-06-16T01:25:28.286Z,60.94
2018-06-16T01:27:58.907Z,61.02
2018-06-16T01:30:29.532Z,61.43
2018-06-16T01:33:00.175Z,61.48
2018-06-16T01:35:30.841Z,61.38
2018-06-16T01:38:01.446Z,61.75
2018-06-16T01:40:32.086Z,61.73
2018-06-16T01:43:02.724Z,62.26
2018-06-16T01:45:33.352Z,62.52
2018-06-16T01:48:03.999Z,62.98
2018-06-16T01:50:34.647Z,63.88
2018-06-16T01:53:05.289Z,63.54
2018-06-16T01:55:35.903Z,63.47
2018-06-16T01:58:06.559Z,63.49
2018-06-16T02:00:37.174Z,63.40
2018-06-16T02:03:07.859Z,63.92
2018-06-16T02:05:38.512Z,63.59
2018-06-16T02:08:09.223Z,63.29
2018-06-16T02:10:39.850Z,63.84
2018-06-16T02:13:10.493Z,64.05
2018-06-16T02:15:41.293Z,63.54
2018-06-16T02:18:11.950Z,63.91
2018-06-16T02:20:42.646Z,64.46
2018-06-16T02:23:13.318Z,65.08
2018-06-16T02:25:43.913Z,64.74
2018-06-16T02:28:14.551Z,64.81
2018-06-16T02:30:45.162Z,64.90
2018-06-16T02:33:15.783Z,64.78
2018-06-16T02:35:46.416Z,64.69
2018-06-16T02:38:17.068Z,64.83
2018-06-16T02:40:47.703Z,65.41
2018-06-16T02:43:18.371Z,65.44
2018-06-16T02:45:49.001Z,65.60
2018-06-16T02:48:19.640Z,65.77
2018-06-16T02:50:50.234Z,66.31
2018-06-16T02:53:20.909Z,66.12
2018-06-16T02:55:51.574Z,66.23
2018-06-16T02:58:22.208Z,66.47
2018-06-16T03:00:52.837Z,66.67
2018-06-16T03:03:23.570Z,66.52
2018-06-16T03:05:54.184Z,66.61
2018-06-16T03:08:24.836Z,66.70
2018-06-16T03:10:55.446Z,66.89
2018-06-16T03:13:26.088Z,67.26
2018-06-16T03:15:56.691Z,67.50
2018-06-16T03:18:27.383Z,67.21
2018-06-16T03:20:57.972Z,67.26
2018-06-16T03:23:28.664Z,67.52
2018-06-16T03:25:59.282Z,67.53
2018-06-16T03:28:29.880Z,67.99
2018-06-16T03:31:00.512Z,68.31
2018-06-16T03:33:31.227Z,68.24
2018-06-16T03:36:01.858Z,68.01
2018-06-16T03:38:32.481Z,68.36
2018-06-16T03:41:03.052Z,68.56
2018-06-16T03:43:33.684Z,68.63
2018-06-16T03:46:04.304Z,68.42
2018-06-16T03:48:34.919Z,68.52
2018-06-16T03:51:05.563Z,69.02
2018-06-16T03:53:36.181Z,68.54
2018-06-16T03:56:06.826Z,68.72
2018-06-16T03:58:37.471Z,68.92
2018-06-16T04:01:08.091Z,68.41
2018-06-16T04:03:38.714Z,68.94
2018-06-16T04:06:09.348Z,68.73
2018-06-16T04:08:39.988Z,68.61
2018-06-16T04:11:10.627Z,69.09
2018-06-16T04:13:41.240Z,69.68
2018-06-16T04:16:11.905Z,70.10
2018-06-16T04:18:42.566Z,69.76
2018-06-16T04:21:13.170Z,69.96
2018-06-16T04:23:43.758Z,69.89
2018-06-16T04:26:14.479Z,70.03
2018-06-16T04:28:45.049Z,69.76
2018-06-16T04:31:15.659Z,69.46
2018-06-16T04:33:46.279Z,69.68
2018-06-16T04:36:16.978Z,69.76
2018-06-16T04:38:47.682Z,69.51
2018-06-16T04:41:18.363Z,69.49
2018-06-16T04:43:49.059Z,69.07
2018-06-16T04:46:19.677Z,68.94
2018-06-16T04:48:50.280Z,68.58
2018-06-16T04:51:20.881Z,68.18
2018-06-16T04:53:51.587Z,68.08
2018-06-16T04:56:22.233Z,67.59
2018-06-16T04:58:53.214Z,67.07
2018-06-16T05:01:23.871Z,66.15
2018-06-16T05:03:54.555Z,66.72
2018-06-16T05:06:25.234Z,66.03
2018-06-16T05:08:55.886Z,65.43
2018-06-16T05:11:26.543Z,65.77
2018-06-16T05:13:57.182Z,64.10
2018-06-16T05:16:27.804Z,63.68
2018-06-16T05:18:58.425Z,62.94
2018-06-16T05:21:29.034Z,63.49
2018-06-16T05:23:59.689Z,62.26
2018-06-16T05:26:30.320Z,61.62
2018-06-16T05:29:01.007Z,62.07
2018-06-16T05:31:31.600Z,61.18
2018-06-16T05:34:02.210Z,60.93
2018-06-16T05:36:32.872Z,60.89
2018-06-16T05:39:03.647Z,60.61
2018-06-16T05:41:34.292Z,60.46
2018-06-16T05:44:04.960Z,60.59
2018-06-16T05:46:35.588Z,59.78
2018-06-16T05:49:06.406Z,59.51
2018-06-16T05:51:37.104Z,60.46
2018-06-16T05:54:08.613Z,59.56
2018-06-16T05:56:39.262Z,58.17
2018-06-16T05:59:09.957Z,57.36
2018-06-16T06:01:40.853Z,57.20
2018-06-16T06:04:11.577Z,57.37
2018-06-16T06:06:42.224Z,56.93
2018-06-16T06:09:12.839Z,56.80
2018-06-16T06:11:43.511Z,56.63
2018-06-16T06:14:14.155Z,56.27
2018-06-16T06:16:44.804Z,55.71
2018-06-16T06:19:15.396Z,56.37
2018-06-16T06:21:46.102Z,55.74
2018-06-16T06:24:16.720Z,56.02
2018-06-16T06:26:47.371Z,56.04
2018-06-16T06:29:18.005Z,56.53
2018-06-16T06:31:48.652Z,56.66
2018-06-16T06:34:19.308Z,56.57
2018-06-16T06:36:49.956Z,56.94
2018-06-16T06:39:20.627Z,56.85
2018-06-16T06:41:51.264Z,56.77
2018-06-16T06:44:21.991Z,56.67
2018-06-16T06:46:52.625Z,56.60
2018-06-16T06:49:23.212Z,55.93
2018-06-16T06:51:53.867Z,55.67
2018-06-16T06:54:24.482Z,54.97
2018-06-16T06:56:55.103Z,55.14
2018-06-16T06:59:25.744Z,55.04
2018-06-16T07:01:56.456Z,55.26
2018-06-16T07:04:27.107Z,55.34
2018-06-16T07:06:57.780Z,55.48
2018-06-16T07:09:28.519Z,54.40
2018-06-16T07:11:59.132Z,54.53
2018-06-16T07:14:30.444Z,54.53
2018-06-16T07:17:01.033Z,54.17
2018-06-16T07:19:31.668Z,53.76
2018-06-16T07:22:02.266Z,53.63
2018-06-16T07:24:32.895Z,52.75
2018-06-16T07:27:03.507Z,51.64
2018-06-16T07:29:34.179Z,52.82
2018-06-16T07:32:04.891Z,51.89
2018-06-16T07:34:35.555Z,51.08
2018-06-16T07:37:06.233Z,50.66
2018-06-16T07:39:36.847Z,50.99
2018-06-16T07:42:07.539Z,50.31
2018-06-16T07:44:38.183Z,49.07
2018-06-16T07:47:08.972Z,48.64
2018-06-16T07:49:39.639Z,48.74
2018-06-16T07:52:10.406Z,49.57
2018-06-16T07:54:42.540Z,47.75
2018-06-16T07:57:13.602Z,47.26
2018-06-16T07:59:44.711Z,47.30
2018-06-16T08:02:15.715Z,47.30
2018-06-16T08:04:46.847Z,46.35
2018-06-16T08:07:18.702Z,47.11
2018-06-16T08:09:49.585Z,46.06
2018-06-16T08:12:20.282Z,44.76
2018-06-16T08:14:50.942Z,44.90
2018-06-16T08:17:36.202Z,45.43
2018-06-16T08:20:06.882Z,45.66
2018-06-16T08:22:37.637Z,46.38
2018-06-16T08:25:08.260Z,45.94
2018-06-16T08:27:38.956Z,46.34
2018-06-16T08:30:09.361Z,45.92
2018-06-16T08:32:39.916Z,45.03
2018-06-16T08:35:10.664Z,42.82
2018-06-16T08:37:41.374Z,43.44
2018-06-16T08:40:12.087Z,42.98
2018-06-16T08:42:42.751Z,41.84
2018-06-16T08:45:44.647Z,42.41
2018-06-16T08:48:15.301Z,41.35
2018-06-16T08:50:45.991Z,41.26
2018-06-16T08:53:16.679Z,41.63
2018-06-16T08:55:47.343Z,42.47
2018-06-16T08:58:18.012Z,41.74
2018-06-16T09:00:54.454Z,41.54
2018-06-16T09:03:25.239Z,41.77
2018-06-16T09:05:55.871Z,41.80
2018-06-16T09:08:28.255Z,42.06
2018-06-16T09:10:58.938Z,41.89
2018-06-16T09:13:29.595Z,42.91
2018-06-16T09:16:00.256Z,40.87
2018-06-16T09:18:30.977Z,41.11
2018-06-16T09:21:08.307Z,41.74
2018-06-16T09:23:53.598Z,41.77
2018-06-16T09:26:24.288Z,41.57
2018-06-16T09:28:54.992Z,40.62
2018-06-16T09:31:25.681Z,39.82
2018-06-16T09:33:56.347Z,39.64
2018-06-16T09:36:27.086Z,38.15
2018-06-16T09:38:57.711Z,37.09
2018-06-16T09:41:28.434Z,37.40
2018-06-16T09:43:59.087Z,37.33
2018-06-16T09:46:29.791Z,36.62
2018-06-16T09:49:00.433Z,35.55
2018-06-16T09:51:31.152Z,35.02
2018-06-16T09:54:01.860Z,33.91
2018-06-16T09:56:32.564Z,33.37
2018-06-16T09:59:03.279Z,34.53
2018-06-16T10:01:33.962Z,36.17
2018-06-16T10:04:04.672Z,35.68
2018-06-16T10:06:35.328Z,35.47
2018-06-16T10:09:08.432Z,35.38
2018-06-16T10:11:39.127Z,35.49
2018-06-16T10:14:09.814Z,33.48
2018-06-16T10:16:40.489Z,35.25
2018-06-16T10:19:11.152Z,35.44
2018-06-16T10:21:41.799Z,33.83
2018-06-16T10:24:12.498Z,32.93
2018-06-16T10:26:43.215Z,32.87
2018-06-16T10:29:13.853Z,32.34
2018-06-16T10:31:44.577Z,34.18
2018-06-16T10:34:15.249Z,34.16
2018-06-16T10:36:45.959Z,34.60
2018-06-16T10:39:16.604Z,33.19
2018-06-16T10:41:47.116Z,33.20
2018-06-16T10:44:17.655Z,32.82
2018-06-16T10:46:48.399Z,32.94
2018-06-16T10:49:19.120Z,33.89
2018-06-16T10:51:49.833Z,32.95
2018-06-16T10:54:20.536Z,33.00
2018-06-16T10:56:51.279Z,32.95
2018-06-16T10:59:21.957Z,33.13
2018-06-16T11:01:52.651Z,32.20
2018-06-16T11:04:23.318Z,33.42
2018-06-16T11:06:54.069Z,33.47
2018-06-16T11:09:24.766Z,34.70
2018-06-16T11:11:55.605Z,32.76
2018-06-16T11:14:26.302Z,33.43
2018-06-16T11:16:56.964Z,33.62
2018-06-16T11:19:27.737Z,34.49
2018-06-16T11:21:58.404Z,33.47
2018-06-16T11:24:29.110Z,33.96
2018-06-16T11:26:59.863Z,32.47
2018-06-16T11:29:30.500Z,33.33
2018-06-16T11:32:01.213Z,33.14
2018-06-16T11:34:31.983Z,32.74
2018-06-16T11:37:02.722Z,33.46
2018-06-16T11:39:33.388Z,33.73
2018-06-16T11:42:04.113Z,34.99
2018-06-16T11:44:34.823Z,34.50
2018-06-16T11:47:05.597Z,34.13
2018-06-16T11:49:36.300Z,34.26
2018-06-16T11:52:06.954Z,34.08
2018-06-16T11:54:37.634Z,33.76
2018-06-16T11:57:08.396Z,35.07
2018-06-16T11:59:39.111Z,34.28
2018-06-16T12:02:09.889Z,34.59
2018-06-16T12:04:40.557Z,34.03
2018-06-16T12:07:11.224Z,33.41
2018-06-16T12:09:41.876Z,32.74
2018-06-16T12:12:13.130Z,32.88
2018-06-16T12:14:43.804Z,32.87
2018-06-16T12:17:14.483Z,32.20
2018-06-16T12:19:45.171Z,33.44
2018-06-16T12:22:15.844Z,32.82
2018-06-16T12:24:46.487Z,34.14
2018-06-16T12:27:17.160Z,31.77
2018-06-16T12:29:47.867Z,30.81
2018-06-16T12:32:18.512Z,32.05
2018-06-16T12:34:49.108Z,32.31
2018-06-16T12:37:19.862Z,32.25
2018-06-16T12:39:50.533Z,32.71
2018-06-16T12:42:21.264Z,33.52
2018-06-16T12:44:51.928Z,33.99
2018-06-16T12:47:22.602Z,34.67
2018-06-16T12:49:53.265Z,34.34
2018-06-16T12:52:24.450Z,34.42
2018-06-16T12:54:55.485Z,34.16
2018-06-16T12:57:26.097Z,34.49
2018-06-16T12:59:56.780Z,34.53
2018-06-16T13:02:27.450Z,34.88
2018-06-16T13:04:58.102Z,36.51
2018-06-16T13:07:28.743Z,36.25
2018-06-16T13:09:59.430Z,36.85
2018-06-16T13:12:30.070Z,37.02
2018-06-16T13:15:00.747Z,37.67
2018-06-16T13:17:31.376Z,37.69
2018-06-16T13:20:02.030Z,38.13
2018-06-16T13:22:32.703Z,38.51
2018-06-16T13:25:03.427Z,38.58
2018-06-16T13:27:34.155Z,38.86
2018-06-16T13:30:04.998Z,39.09
2018-06-16T13:32:35.738Z,39.28
2018-06-16T13:35:06.724Z,40.13
2018-06-16T13:37:37.423Z,39.33
2018-06-16T13:40:08.101Z,40.12
2018-06-16T13:42:38.843Z,40.18
2018-06-16T13:45:09.541Z,40.04
2018-06-16T13:47:40.923Z,39.37
2018-06-16T13:50:14.258Z,38.61
2018-06-16T13:52:50.787Z,37.82
2018-06-16T13:55:37.436Z,38.40
2018-06-16T13:58:08.234Z,37.39
2018-06-16T14:00:38.979Z,37.74
2018-06-16T14:03:09.662Z,37.27
2018-06-16T14:05:40.359Z,37.42
2018-06-16T14:08:11.090Z,37.57
2018-06-16T14:10:41.412Z,38.00
2018-06-16T14:13:11.990Z,37.59
2018-06-16T14:15:42.854Z,37.48
2018-06-16T14:18:13.515Z,37.77
2018-06-16T14:20:44.157Z,37.01
2018-06-16T14:23:15.017Z,37.04
2018-06-16T14:25:45.766Z,36.62
2018-06-16T14:28:16.677Z,36.32
2018-06-16T14:30:47.376Z,34.96
2018-06-16T14:33:18.071Z,35.05
2018-06-16T14:35:48.796Z,34.72
2018-06-16T14:38:19.491Z,33.66
2018-06-16T14:40:50.151Z,33.42
2018-06-16T14:43:20.806Z,34.01
2018-06-16T14:45:51.486Z,32.54
2018-06-16T14:48:22.146Z,33.17
2018-06-16T14:50:52.864Z,33.59
2018-06-16T14:53:23.523Z,33.98
2018-06-16T14:55:54.163Z,34.04
2018-06-16T14:58:26.189Z,34.25
2018-06-16T15:00:57.923Z,34.72
2018-06-16T15:03:28.580Z,34.48
2018-06-16T15:05:59.254Z,35.94
2018-06-16T15:08:29.948Z,36.14
2018-06-16T15:11:00.620Z,35.67
2018-06-16T15:13:31.308Z,35.81
2018-06-16T15:16:01.999Z,35.76
2018-06-16T15:18:32.671Z,35.80
2018-06-16T15:21:03.445Z,35.70
2018-06-16T15:23:34.836Z,35.16
2018-06-16T15:26:05.562Z,33.83
2018-06-16T15:28:36.215Z,34.82
2018-06-16T15:31:37.832Z,34.96
2018-06-16T15:34:08.687Z,35.99
2018-06-16T15:36:39.433Z,34.64
2018-06-16T15:39:11.212Z,35.80
2018-06-16T15:41:41.904Z,36.13
2018-06-16T15:44:12.604Z,36.49
2018-06-16T15:46:43.374Z,36.20
2018-06-16T15:49:14.146Z,36.37
2018-06-16T15:51:44.836Z,36.84
2018-06-16T15:54:15.565Z,36.91
2018-06-16T15:56:46.284Z,36.98
2018-06-16T15:59:17.715Z,37.09
2018-06-16T16:01:48.458Z,37.76
2018-06-16T16:04:19.169Z,37.83
2018-06-16T16:06:49.853Z,37.69
2018-06-16T16:09:20.587Z,38.49
2018-06-16T16:11:51.280Z,37.76
2018-06-16T16:14:21.996Z,36.36
2018-06-16T16:16:52.847Z,36.78
2018-06-16T16:19:23.566Z,37.33
2018-06-16T16:21:54.266Z,38.18
2018-06-16T16:24:24.896Z,37.80
2018-06-16T16:26:55.581Z,38.04
2018-06-16T16:29:26.278Z,38.26
2018-06-16T16:31:57.016Z,38.64
2018-06-16T16:34:27.710Z,39.43
2018-06-16T16:36:58.426Z,39.64
2018-06-16T16:39:29.140Z,39.71
2018-06-16T16:41:59.782Z,40.12
2018-06-16T16:44:30.480Z,40.06
2018-06-16T16:47:01.179Z,40.11
2018-06-16T16:49:31.821Z,39.88
2018-06-16T16:52:02.434Z,40.50
2018-06-16T16:54:33.097Z,40.96
2018-06-16T16:57:03.733Z,40.96
2018-06-16T16:59:34.463Z,40.59
2018-06-16T17:02:05.158Z,41.08
2018-06-16T17:04:35.794Z,42.99
2018-06-16T17:07:06.475Z,49.66
2018-06-16T17:09:37.185Z,53.93
2018-06-16T17:12:07.855Z,57.21
2018-06-16T17:14:38.546Z,60.03
2018-06-16T17:17:09.245Z,61.45
2018-06-16T17:19:39.893Z,61.78
2018-06-16T17:22:10.500Z,63.45
2018-06-16T17:24:41.222Z,63.72
2018-06-16T17:27:11.850Z,63.57
2018-06-16T17:29:42.515Z,64.41
2018-06-16T17:32:13.164Z,64.78
2018-06-16T17:34:43.834Z,64.97
2018-06-16T17:37:14.574Z,66.38
2018-06-16T17:39:45.245Z,66.79
2018-06-16T17:42:15.954Z,66.74
2018-06-16T17:44:46.647Z,66.40
2018-06-16T17:47:17.332Z,66.77
2018-06-16T17:49:48.127Z,66.99
2018-06-16T17:52:18.794Z,67.12
2018-06-16T17:54:49.632Z,67.60
2018-06-16T17:57:20.406Z,67.54
2018-06-16T17:59:51.284Z,67.73
2018-06-16T18:02:22.161Z,67.13
2018-06-16T18:04:52.866Z,67.36
2018-06-16T18:07:23.509Z,66.83
2018-06-16T18:09:54.218Z,67.21
2018-06-16T18:12:24.910Z,67.56
2018-06-16T18:14:56.071Z,67.87
2018-06-16T18:17:26.791Z,67.23
2018-06-16T18:19:57.460Z,67.78
2018-06-16T18:22:28.117Z,67.52
2018-06-16T18:24:58.802Z,67.85
2018-06-16T18:27:29.513Z,68.14
2018-06-16T18:30:00.215Z,68.68
2018-06-16T18:32:30.959Z,67.58
2018-06-16T18:35:01.667Z,67.32
2018-06-16T18:37:32.340Z,67.19
2018-06-16T18:40:02.989Z,67.02
2018-06-16T18:42:34.369Z,66.79
2018-06-16T18:45:05.304Z,66.78
2018-06-16T18:47:35.944Z,66.82
2018-06-16T18:50:06.624Z,66.25
2018-06-16T18:52:37.323Z,66.13
2018-06-16T18:55:08.003Z,65.79
2018-06-16T18:57:38.687Z,66.06
2018-06-16T19:00:09.353Z,65.83
2018-06-16T19:02:40.039Z,66.13
2018-06-16T19:05:10.718Z,66.46
2018-06-16T19:07:41.416Z,66.28
2018-06-16T19:10:12.209Z,66.88
2018-06-16T19:12:42.894Z,67.09
2018-06-16T19:15:13.593Z,68.64
2018-06-16T19:17:44.323Z,69.92
2018-06-16T19:20:15.021Z,70.98
2018-06-16T19:22:45.793Z,71.86
2018-06-16T19:25:16.452Z,72.83
2018-06-16T19:27:47.107Z,73.62
2018-06-16T19:30:17.832Z,73.02
2018-06-16T19:32:48.584Z,72.80
2018-06-16T19:35:19.527Z,71.18
2018-06-16T19:37:50.134Z,71.33
2018-06-16T19:40:20.826Z,72.06
2018-06-16T19:42:51.478Z,71.96
2018-06-16T19:45:22.217Z,71.48
2018-06-16T19:47:52.928Z,70.47
2018-06-16T19:50:23.553Z,70.60
2018-06-16T19:52:54.295Z,70.81
2018-06-16T19:55:24.959Z,71.55
2018-06-16T19:57:55.687Z,70.94
2018-06-16T20:00:26.381Z,70.71
2018-06-16T20:02:57.111Z,71.08
2018-06-16T20:05:27.770Z,71.31
2018-06-16T20:07:58.483Z,71.32
2018-06-16T20:10:29.105Z,70.97
2018-06-16T20:12:59.911Z,70.77
2018-06-16T20:15:30.525Z,70.79
2018-06-16T20:18:01.170Z,71.25
2018-06-16T20:20:34.691Z,71.10
2018-06-16T20:23:05.418Z,70.68
2018-06-16T20:25:36.077Z,68.98
2018-06-16T20:28:06.811Z,68.31
2018-06-16T20:30:37.496Z,68.39
2018-06-16T20:33:08.186Z,67.93
2018-06-16T20:35:38.877Z,67.47
2018-06-16T20:38:09.589Z,67.30
2018-06-16T20:40:40.206Z,66.89
2018-06-16T20:43:10.904Z,67.28
2018-06-16T20:45:41.548Z,68.12
2018-06-16T20:48:12.286Z,67.07
2018-06-16T20:50:43.070Z,67.04
2018-06-16T20:53:13.695Z,66.56
2018-06-16T20:55:44.383Z,65.92
2018-06-16T20:58:15.011Z,65.21
2018-06-16T21:00:45.670Z,64.66
2018-06-16T21:03:16.337Z,64.01
2018-06-16T21:05:46.997Z,64.06
2018-06-16T21:08:17.706Z,64.12
2018-06-16T21:10:48.323Z,63.95
2018-06-16T21:13:18.973Z,63.93
2018-06-16T21:15:49.613Z,64.07
2018-06-16T21:18:20.262Z,64.60
2018-06-16T21:20:50.931Z,64.69
2018-06-16T21:23:22.504Z,64.86
2018-06-16T21:25:53.444Z,65.45
2018-06-16T21:28:24.068Z,66.54
2018-06-16T21:30:54.824Z,66.70
2018-06-16T21:33:25.505Z,66.27
2018-06-16T21:35:56.176Z,65.98
2018-06-16T21:38:26.776Z,65.37
2018-06-16T21:40:58.443Z,65.03
2018-06-16T21:43:29.061Z,64.64
2018-06-16T21:45:59.711Z,64.92
2018-06-16T21:48:30.436Z,64.80
2018-06-16T21:51:01.129Z,64.32
2018-06-16T21:53:31.761Z,63.84
2018-06-16T21:56:02.442Z,63.95
2018-06-16T21:58:33.111Z,64.22
2018-06-16T22:01:03.796Z,64.42
2018-06-16T22:03:34.450Z,64.43
2018-06-16T22:06:05.155Z,64.25
2018-06-16T22:08:35.878Z,64.14
2018-06-16T22:11:06.613Z,63.66
2018-06-16T22:13:37.278Z,63.53
2018-06-16T22:16:07.971Z,64.03
2018-06-16T22:18:38.662Z,63.51
2018-06-16T22:21:09.331Z,63.84
2018-06-16T22:23:40.091Z,63.34
2018-06-16T22:26:10.711Z,62.93
2018-06-16T22:28:41.366Z,63.32
2018-06-16T22:31:12.008Z,62.94
2018-06-16T22:33:42.652Z,63.55
2018-06-16T22:36:13.321Z,63.63
2018-06-16T22:38:44.189Z,63.34
2018-06-16T22:41:14.865Z,63.03
2018-06-16T22:43:45.609Z,62.84
2018-06-16T22:46:16.267Z,62.54
2018-06-16T22:48:46.600Z,62.33
2018-06-16T22:51:17.113Z,62.03
2018-06-16T22:53:47.764Z,62.47
2018-06-16T22:56:18.391Z,62.00
2018-06-16T22:58:49.075Z,62.16
2018-06-16T23:01:19.686Z,61.91
2018-06-16T23:03:50.335Z,62.16
2018-06-16T23:06:20.952Z,61.60
2018-06-16T23:08:51.664Z,61.96
2018-06-16T23:11:22.299Z,61.75
2018-06-16T23:13:52.947Z,61.70
2018-06-16T23:16:23.587Z,61.97
2018-06-16T23:18:54.365Z,62.12
2018-06-16T23:21:25.008Z,61.85
2018-06-16T23:23:55.802Z,61.77
2018-06-16T23:26:26.412Z,62.15
2018-06-16T23:28:57.061Z,62.05
2018-06-16T23:31:27.709Z,62.65
2018-06-16T23:33:58.356Z,62.56
2018-06-16T23:36:28.973Z,63.00
2018-06-16T23:38:59.774Z,63.60
2018-06-16T23:41:30.443Z,64.83
2018-06-16T23:44:01.093Z,64.23
2018-06-16T23:46:31.724Z,64.19
2018-06-16T23:49:02.370Z,64.37
2018-06-16T23:51:33.017Z,64.58
2018-06-16T23:54:03.662Z,64.69
2018-06-16T23:56:34.293Z,64.75
2018-06-16T23:59:04.940Z,65.05
